sensor_id;sensor_type;location;lat;lon;timestamp;P1;durP1;ratioP1;P2;durP2;ratioP2
23302;SDS011;11820;48.738;9.092;2023-04-15T00:02:19;2.97;;;1.70;;
23302;SDS011;11820;48.738;9.092;2023-04-15T00:04:45;4.17;;;1.70;;
23302;SDS011;11820;48.738;9.092;2023-04-15T00:07:10;3.03;;;1.53;;
23302;SDS011;11820;48.738;9.092;2023-04-15T00:09:36;4.93;;;1.87;;
23302;SDS011;11820;48.738;9.092;2023-04-15T00:12:01;4.77;;;1.73;;
23302;SDS011;11820;48.738;9.092;2023-04-15T00:14:27;2.20;;;1.60;;
23302;SDS011;11820;48.738;9.092;2023-04-15T00:16:52;2.20;;;1.40;;
23302;SDS011;11820;48.738;9.092;2023-04-15T00:19:20;4.03;;;1.73;;
23302;SDS011;11820;48.738;9.092;2023-04-15T00:21:45;4.53;;;2.17;;
23302;SDS011;11820;48.738;9.092;2023-04-15T00:24:11;4.07;;;1.53;;
23302;SDS011;11820;48.738;9.092;2023-04-15T00:26:37;2.93;;;1.43;;
23302;SDS011;11820;48.738;9.092;2023-04-15T00:29:03;3.23;;;1.60;;
23302;SDS011;11820;48.738;9.092;2023-04-15T00:31:28;4.80;;;1.40;;
23302;SDS011;11820;48.738;9.092;2023-04-15T00:33:55;4.20;;;1.50;;
23302;SDS011;11820;48.738;9.092;2023-04-15T00:36:20;3.40;;;1.50;;
23302;SDS011;11820;48.738;9.092;2023-04-15T00:38:46;5.03;;;1.80;;
23302;SDS011;11820;48.738;9.092;2023-04-15T00:41:12;4.10;;;1.50;;
23302;SDS011;11820;48.738;9.092;2023-04-15T00:43:37;3.57;;;1.53;;
23302;SDS011;11820;48.738;9.092;2023-04-15T00:46:03;2.80;;;1.43;;
23302;SDS011;11820;48.738;9.092;2023-04-15T00:48:30;4.43;;;2.13;;
23302;SDS011;11820;48.738;9.092;2023-04-15T00:50:56;3.23;;;1.60;;
23302;SDS011;11820;48.738;9.092;2023-04-15T00:53:21;3.10;;;1.40;;
23302;SDS011;11820;48.738;9.092;2023-04-15T00:55:47;4.40;;;1.60;;
23302;SDS011;11820;48.738;9.092;2023-04-15T00:58:13;3.07;;;1.60;;
23302;SDS011;11820;48.738;9.092;2023-04-15T01:00:38;5.53;;;1.73;;
23302;SDS011;11820;48.738;9.092;2023-04-15T01:03:04;6.70;;;2.53;;
23302;SDS011;11820;48.738;9.092;2023-04-15T01:05:30;15.63;;;1.77;;
23302;SDS011;11820;48.738;9.092;2023-04-15T01:07:56;2.97;;;1.67;;
23302;SDS011;11820;48.738;9.092;2023-04-15T01:10:21;2.87;;;1.50;;
23302;SDS011;11820;48.738;9.092;2023-04-15T01:12:46;2.67;;;1.50;;
23302;SDS011;11820;48.738;9.092;2023-04-15T01:15:12;2.17;;;1.60;;
23302;SDS011;11820;48.738;9.092;2023-04-15T01:17:38;4.80;;;1.60;;
23302;SDS011;11820;48.738;9.092;2023-04-15T01:20:04;3.50;;;1.77;;
23302;SDS011;11820;48.738;9.092;2023-04-15T01:22:30;5.27;;;1.73;;
23302;SDS011;11820;48.738;9.092;2023-04-15T01:25:04;3.43;;;1.43;;
23302;SDS011;11820;48.738;9.092;2023-04-15T01:27:32;4.20;;;1.57;;
23302;SDS011;11820;48.738;9.092;2023-04-15T01:29:59;1.97;;;1.50;;
23302;SDS011;11820;48.738;9.092;2023-04-15T01:32:25;2.47;;;1.70;;
23302;SDS011;11820;48.738;9.092;2023-04-15T01:34:51;2.30;;;1.60;;
23302;SDS011;11820;48.738;9.092;2023-04-15T01:37:16;4.27;;;1.97;;
23302;SDS011;11820;48.738;9.092;2023-04-15T01:39:41;2.93;;;1.70;;
23302;SDS011;11820;48.738;9.092;2023-04-15T01:42:07;3.27;;;1.30;;
23302;SDS011;11820;48.738;9.092;2023-04-15T01:44:32;3.17;;;1.80;;
23302;SDS011;11820;48.738;9.092;2023-04-15T01:46:57;3.23;;;1.60;;
23302;SDS011;11820;48.738;9.092;2023-04-15T01:49:23;3.60;;;1.37;;
23302;SDS011;11820;48.738;9.092;2023-04-15T01:51:48;3.00;;;1.60;;
23302;SDS011;11820;48.738;9.092;2023-04-15T01:54:14;1.63;;;1.47;;
23302;SDS011;11820;48.738;9.092;2023-04-15T01:56:39;5.33;;;2.13;;
23302;SDS011;11820;48.738;9.092;2023-04-15T01:59:04;3.20;;;1.90;;
23302;SDS011;11820;48.738;9.092;2023-04-15T02:01:30;5.17;;;1.60;;
23302;SDS011;11820;48.738;9.092;2023-04-15T02:03:55;2.27;;;1.50;;
23302;SDS011;11820;48.738;9.092;2023-04-15T02:06:21;5.60;;;1.87;;
23302;SDS011;11820;48.738;9.092;2023-04-15T02:08:46;2.10;;;1.60;;
23302;SDS011;11820;48.738;9.092;2023-04-15T02:11:11;4.17;;;1.40;;
23302;SDS011;11820;48.738;9.092;2023-04-15T02:13:37;3.83;;;1.67;;
23302;SDS011;11820;48.738;9.092;2023-04-15T02:16:02;3.23;;;1.70;;
23302;SDS011;11820;48.738;9.092;2023-04-15T02:18:28;2.83;;;1.30;;
23302;SDS011;11820;48.738;9.092;2023-04-15T02:20:53;2.40;;;1.33;;
23302;SDS011;11820;48.738;9.092;2023-04-15T02:23:19;2.30;;;1.50;;
23302;SDS011;11820;48.738;9.092;2023-04-15T02:25:45;3.47;;;1.80;;
23302;SDS011;11820;48.738;9.092;2023-04-15T02:28:11;4.97;;;1.70;;
23302;SDS011;11820;48.738;9.092;2023-04-15T02:30:36;3.43;;;1.67;;
23302;SDS011;11820;48.738;9.092;2023-04-15T02:33:02;3.27;;;1.60;;
23302;SDS011;11820;48.738;9.092;2023-04-15T02:35:28;4.33;;;1.70;;
23302;SDS011;11820;48.738;9.092;2023-04-15T02:37:53;1.73;;;1.60;;
23302;SDS011;11820;48.738;9.092;2023-04-15T02:40:19;6.87;;;1.33;;
23302;SDS011;11820;48.738;9.092;2023-04-15T02:42:44;5.23;;;2.20;;
23302;SDS011;11820;48.738;9.092;2023-04-15T02:45:10;3.47;;;1.40;;
23302;SDS011;11820;48.738;9.092;2023-04-15T02:47:36;4.43;;;1.80;;
23302;SDS011;11820;48.738;9.092;2023-04-15T02:50:06;3.67;;;1.40;;
23302;SDS011;11820;48.738;9.092;2023-04-15T02:52:33;3.33;;;1.60;;
23302;SDS011;11820;48.738;9.092;2023-04-15T02:54:59;3.33;;;1.70;;
23302;SDS011;11820;48.738;9.092;2023-04-15T02:57:26;3.23;;;1.73;;
23302;SDS011;11820;48.738;9.092;2023-04-15T02:59:55;2.83;;;1.43;;
23302;SDS011;11820;48.738;9.092;2023-04-15T03:02:20;5.37;;;1.90;;
23302;SDS011;11820;48.738;9.092;2023-04-15T03:04:45;4.50;;;1.53;;
23302;SDS011;11820;48.738;9.092;2023-04-15T03:07:11;4.80;;;1.63;;
23302;SDS011;11820;48.738;9.092;2023-04-15T03:09:36;1.60;;;1.30;;
23302;SDS011;11820;48.738;9.092;2023-04-15T03:12:03;3.10;;;1.70;;
23302;SDS011;11820;48.738;9.092;2023-04-15T03:14:29;3.57;;;1.90;;
23302;SDS011;11820;48.738;9.092;2023-04-15T03:16:54;5.27;;;2.47;;
23302;SDS011;11820;48.738;9.092;2023-04-15T03:19:20;4.27;;;1.47;;
23302;SDS011;11820;48.738;9.092;2023-04-15T03:21:45;5.67;;;1.57;;
23302;SDS011;11820;48.738;9.092;2023-04-15T03:24:10;3.33;;;1.50;;
23302;SDS011;11820;48.738;9.092;2023-04-15T03:26:35;4.20;;;1.63;;
23302;SDS011;11820;48.738;9.092;2023-04-15T03:29:01;3.30;;;1.23;;
23302;SDS011;11820;48.738;9.092;2023-04-15T03:31:26;3.93;;;1.70;;
23302;SDS011;11820;48.738;9.092;2023-04-15T03:33:51;3.53;;;1.60;;
23302;SDS011;11820;48.738;9.092;2023-04-15T03:36:17;3.43;;;1.70;;
23302;SDS011;11820;48.738;9.092;2023-04-15T03:38:42;1.83;;;1.63;;
23302;SDS011;11820;48.738;9.092;2023-04-15T03:41:08;3.30;;;1.70;;
23302;SDS011;11820;48.738;9.092;2023-04-15T03:43:33;3.03;;;1.80;;
23302;SDS011;11820;48.738;9.092;2023-04-15T03:45:59;3.40;;;1.73;;
23302;SDS011;11820;48.738;9.092;2023-04-15T03:48:24;2.17;;;1.70;;
23302;SDS011;11820;48.738;9.092;2023-04-15T03:50:49;2.37;;;1.63;;
23302;SDS011;11820;48.738;9.092;2023-04-15T03:53:15;2.53;;;1.63;;
23302;SDS011;11820;48.738;9.092;2023-04-15T03:55:40;4.73;;;1.87;;
23302;SDS011;11820;48.738;9.092;2023-04-15T03:58:05;2.23;;;1.83;;
23302;SDS011;11820;48.738;9.092;2023-04-15T04:00:31;4.13;;;1.87;;
23302;SDS011;11820;48.738;9.092;2023-04-15T04:02:56;4.23;;;1.97;;
23302;SDS011;11820;48.738;9.092;2023-04-15T04:05:22;1.73;;;1.50;;
23302;SDS011;11820;48.738;9.092;2023-04-15T04:07:47;5.03;;;2.00;;
23302;SDS011;11820;48.738;9.092;2023-04-15T04:10:13;7.47;;;3.07;;
23302;SDS011;11820;48.738;9.092;2023-04-15T04:12:38;2.77;;;1.90;;
23302;SDS011;11820;48.738;9.092;2023-04-15T04:15:03;4.10;;;2.00;;
23302;SDS011;11820;48.738;9.092;2023-04-15T04:17:29;4.83;;;1.70;;
23302;SDS011;11820;48.738;9.092;2023-04-15T04:19:54;3.17;;;1.90;;
23302;SDS011;11820;48.738;9.092;2023-04-15T04:22:23;4.83;;;1.90;;
23302;SDS011;11820;48.738;9.092;2023-04-15T04:24:49;2.27;;;1.63;;
23302;SDS011;11820;48.738;9.092;2023-04-15T04:27:14;3.37;;;2.00;;
23302;SDS011;11820;48.738;9.092;2023-04-15T04:29:40;3.17;;;2.00;;
23302;SDS011;11820;48.738;9.092;2023-04-15T04:32:05;4.40;;;2.13;;
23302;SDS011;11820;48.738;9.092;2023-04-15T04:34:31;3.27;;;1.87;;
23302;SDS011;11820;48.738;9.092;2023-04-15T04:36:56;3.77;;;2.10;;
23302;SDS011;11820;48.738;9.092;2023-04-15T04:39:22;2.50;;;2.17;;
23302;SDS011;11820;48.738;9.092;2023-04-15T04:41:47;5.67;;;2.50;;
23302;SDS011;11820;48.738;9.092;2023-04-15T04:44:13;3.70;;;2.40;;
23302;SDS011;11820;48.738;9.092;2023-04-15T04:46:38;4.43;;;1.90;;
23302;SDS011;11820;48.738;9.092;2023-04-15T04:49:03;6.50;;;2.10;;
23302;SDS011;11820;48.738;9.092;2023-04-15T04:51:29;4.97;;;2.37;;
23302;SDS011;11820;48.738;9.092;2023-04-15T04:53:55;4.77;;;2.37;;
23302;SDS011;11820;48.738;9.092;2023-04-15T04:56:21;5.83;;;2.53;;
23302;SDS011;11820;48.738;9.092;2023-04-15T04:58:46;5.33;;;2.63;;
23302;SDS011;11820;48.738;9.092;2023-04-15T05:01:11;3.73;;;2.17;;
23302;SDS011;11820;48.738;9.092;2023-04-15T05:03:37;3.80;;;2.20;;
23302;SDS011;11820;48.738;9.092;2023-04-15T05:06:02;7.33;;;2.40;;
23302;SDS011;11820;48.738;9.092;2023-04-15T05:08:30;2.57;;;1.93;;
23302;SDS011;11820;48.738;9.092;2023-04-15T05:10:55;5.47;;;2.10;;
23302;SDS011;11820;48.738;9.092;2023-04-15T05:13:21;4.40;;;2.07;;
23302;SDS011;11820;48.738;9.092;2023-04-15T05:15:46;3.80;;;1.97;;
23302;SDS011;11820;48.738;9.092;2023-04-15T05:18:11;4.93;;;2.10;;
23302;SDS011;11820;48.738;9.092;2023-04-15T05:20:37;4.90;;;2.00;;
23302;SDS011;11820;48.738;9.092;2023-04-15T05:23:02;5.43;;;2.33;;
23302;SDS011;11820;48.738;9.092;2023-04-15T05:25:28;3.87;;;2.23;;
23302;SDS011;11820;48.738;9.092;2023-04-15T05:27:53;4.40;;;2.20;;
23302;SDS011;11820;48.738;9.092;2023-04-15T05:30:18;3.77;;;1.97;;
23302;SDS011;11820;48.738;9.092;2023-04-15T05:32:44;4.57;;;2.10;;
23302;SDS011;11820;48.738;9.092;2023-04-15T05:35:09;2.33;;;1.70;;
23302;SDS011;11820;48.738;9.092;2023-04-15T05:37:35;2.00;;;1.80;;
23302;SDS011;11820;48.738;9.092;2023-04-15T05:40:00;3.13;;;2.10;;
23302;SDS011;11820;48.738;9.092;2023-04-15T05:42:26;3.67;;;2.63;;
23302;SDS011;11820;48.738;9.092;2023-04-15T05:44:51;4.37;;;2.40;;
23302;SDS011;11820;48.738;9.092;2023-04-15T05:47:16;6.03;;;2.73;;
23302;SDS011;11820;48.738;9.092;2023-04-15T05:49:42;4.10;;;1.80;;
23302;SDS011;11820;48.738;9.092;2023-04-15T05:52:07;3.37;;;2.30;;
23302;SDS011;11820;48.738;9.092;2023-04-15T05:54:32;5.20;;;2.03;;
23302;SDS011;11820;48.738;9.092;2023-04-15T05:56:57;4.30;;;2.67;;
23302;SDS011;11820;48.738;9.092;2023-04-15T05:59:23;2.23;;;1.70;;
23302;SDS011;11820;48.738;9.092;2023-04-15T06:01:48;3.57;;;2.03;;
23302;SDS011;11820;48.738;9.092;2023-04-15T06:04:14;4.03;;;2.27;;
23302;SDS011;11820;48.738;9.092;2023-04-15T06:06:39;4.93;;;2.20;;
23302;SDS011;11820;48.738;9.092;2023-04-15T06:09:05;4.00;;;2.03;;
23302;SDS011;11820;48.738;9.092;2023-04-15T06:11:30;3.80;;;2.20;;
23302;SDS011;11820;48.738;9.092;2023-04-15T06:13:55;4.77;;;2.67;;
23302;SDS011;11820;48.738;9.092;2023-04-15T06:16:21;2.73;;;1.77;;
23302;SDS011;11820;48.738;9.092;2023-04-15T06:18:47;5.07;;;2.50;;
23302;SDS011;11820;48.738;9.092;2023-04-15T06:21:12;4.47;;;2.30;;
23302;SDS011;11820;48.738;9.092;2023-04-15T06:23:38;3.03;;;2.00;;
23302;SDS011;11820;48.738;9.092;2023-04-15T06:26:05;3.80;;;2.30;;
23302;SDS011;11820;48.738;9.092;2023-04-15T06:28:30;5.00;;;1.80;;
23302;SDS011;11820;48.738;9.092;2023-04-15T06:30:56;7.37;;;2.47;;
23302;SDS011;11820;48.738;9.092;2023-04-15T06:33:21;5.17;;;2.10;;
23302;SDS011;11820;48.738;9.092;2023-04-15T06:35:46;4.83;;;2.00;;
23302;SDS011;11820;48.738;9.092;2023-04-15T06:38:13;4.77;;;1.83;;
23302;SDS011;11820;48.738;9.092;2023-04-15T06:40:38;4.17;;;1.83;;
23302;SDS011;11820;48.738;9.092;2023-04-15T06:43:04;3.30;;;1.73;;
23302;SDS011;11820;48.738;9.092;2023-04-15T06:45:30;3.33;;;1.80;;
23302;SDS011;11820;48.738;9.092;2023-04-15T06:47:56;3.87;;;1.60;;
23302;SDS011;11820;48.738;9.092;2023-04-15T06:50:21;4.07;;;1.50;;
23302;SDS011;11820;48.738;9.092;2023-04-15T06:52:46;4.03;;;1.70;;
23302;SDS011;11820;48.738;9.092;2023-04-15T06:55:12;5.90;;;1.70;;
23302;SDS011;11820;48.738;9.092;2023-04-15T06:57:37;5.57;;;2.10;;
23302;SDS011;11820;48.738;9.092;2023-04-15T07:00:02;5.03;;;2.10;;
23302;SDS011;11820;48.738;9.092;2023-04-15T07:02:29;4.80;;;1.93;;
23302;SDS011;11820;48.738;9.092;2023-04-15T07:04:55;2.93;;;2.00;;
23302;SDS011;11820;48.738;9.092;2023-04-15T07:07:20;5.83;;;1.83;;
23302;SDS011;11820;48.738;9.092;2023-04-15T07:09:46;4.30;;;2.00;;
23302;SDS011;11820;48.738;9.092;2023-04-15T07:12:11;4.87;;;1.90;;
23302;SDS011;11820;48.738;9.092;2023-04-15T07:14:37;4.93;;;2.00;;
23302;SDS011;11820;48.738;9.092;2023-04-15T07:17:02;3.83;;;1.57;;
23302;SDS011;11820;48.738;9.092;2023-04-15T07:19:27;5.63;;;1.97;;
23302;SDS011;11820;48.738;9.092;2023-04-15T07:21:53;8.07;;;2.00;;
23302;SDS011;11820;48.738;9.092;2023-04-15T07:24:18;3.00;;;1.40;;
23302;SDS011;11820;48.738;9.092;2023-04-15T07:26:44;5.33;;;1.60;;
23302;SDS011;11820;48.738;9.092;2023-04-15T07:29:10;3.87;;;1.57;;
23302;SDS011;11820;48.738;9.092;2023-04-15T07:31:37;2.53;;;1.50;;
23302;SDS011;11820;48.738;9.092;2023-04-15T07:34:05;4.40;;;1.73;;
23302;SDS011;11820;48.738;9.092;2023-04-15T07:36:31;3.17;;;1.73;;
23302;SDS011;11820;48.738;9.092;2023-04-15T07:38:56;6.53;;;1.60;;
23302;SDS011;11820;48.738;9.092;2023-04-15T07:41:22;3.57;;;1.50;;
23302;SDS011;11820;48.738;9.092;2023-04-15T07:43:47;7.67;;;1.67;;
23302;SDS011;11820;48.738;9.092;2023-04-15T07:46:13;5.17;;;1.63;;
23302;SDS011;11820;48.738;9.092;2023-04-15T07:48:38;3.63;;;1.57;;
23302;SDS011;11820;48.738;9.092;2023-04-15T07:51:03;3.23;;;1.50;;
23302;SDS011;11820;48.738;9.092;2023-04-15T07:53:29;6.10;;;1.60;;
23302;SDS011;11820;48.738;9.092;2023-04-15T07:55:55;3.30;;;1.50;;
23302;SDS011;11820;48.738;9.092;2023-04-15T07:58:21;5.27;;;1.20;;
23302;SDS011;11820;48.738;9.092;2023-04-15T08:00:46;3.83;;;1.43;;
23302;SDS011;11820;48.738;9.092;2023-04-15T08:03:11;5.20;;;1.50;;
23302;SDS011;11820;48.738;9.092;2023-04-15T08:05:36;4.40;;;1.17;;
23302;SDS011;11820;48.738;9.092;2023-04-15T08:08:02;3.10;;;1.50;;
23302;SDS011;11820;48.738;9.092;2023-04-15T08:10:28;4.30;;;1.43;;
23302;SDS011;11820;48.738;9.092;2023-04-15T08:12:54;3.80;;;1.53;;
23302;SDS011;11820;48.738;9.092;2023-04-15T08:15:20;2.40;;;1.20;;
23302;SDS011;11820;48.738;9.092;2023-04-15T08:17:46;5.30;;;1.60;;
23302;SDS011;11820;48.738;9.092;2023-04-15T08:20:11;7.53;;;2.30;;
23302;SDS011;11820;48.738;9.092;2023-04-15T08:22:37;4.43;;;1.63;;
23302;SDS011;11820;48.738;9.092;2023-04-15T08:25:03;2.60;;;1.50;;
23302;SDS011;11820;48.738;9.092;2023-04-15T08:27:28;2.77;;;1.17;;
23302;SDS011;11820;48.738;9.092;2023-04-15T08:29:53;5.57;;;1.40;;
23302;SDS011;11820;48.738;9.092;2023-04-15T08:32:19;1.90;;;1.27;;
23302;SDS011;11820;48.738;9.092;2023-04-15T08:34:44;3.60;;;1.60;;
23302;SDS011;11820;48.738;9.092;2023-04-15T08:37:09;2.67;;;1.40;;
23302;SDS011;11820;48.738;9.092;2023-04-15T08:39:35;4.17;;;1.60;;
23302;SDS011;11820;48.738;9.092;2023-04-15T08:42:01;5.60;;;1.77;;
23302;SDS011;11820;48.738;9.092;2023-04-15T08:44:32;5.03;;;1.70;;
23302;SDS011;11820;48.738;9.092;2023-04-15T08:47:02;4.73;;;1.70;;
23302;SDS011;11820;48.738;9.092;2023-04-15T08:49:28;5.30;;;1.87;;
23302;SDS011;11820;48.738;9.092;2023-04-15T08:51:54;4.47;;;1.90;;
23302;SDS011;11820;48.738;9.092;2023-04-15T08:54:22;5.53;;;1.67;;
23302;SDS011;11820;48.738;9.092;2023-04-15T08:56:47;4.80;;;2.03;;
23302;SDS011;11820;48.738;9.092;2023-04-15T08:59:13;5.97;;;1.90;;
23302;SDS011;11820;48.738;9.092;2023-04-15T09:01:40;4.47;;;1.87;;
23302;SDS011;11820;48.738;9.092;2023-04-15T09:04:06;3.03;;;1.80;;
23302;SDS011;11820;48.738;9.092;2023-04-15T09:06:32;2.73;;;1.70;;
23302;SDS011;11820;48.738;9.092;2023-04-15T09:08:57;4.47;;;1.80;;
23302;SDS011;11820;48.738;9.092;2023-04-15T09:11:23;4.07;;;1.63;;
23302;SDS011;11820;48.738;9.092;2023-04-15T09:13:48;5.37;;;1.87;;
23302;SDS011;11820;48.738;9.092;2023-04-15T09:16:14;6.37;;;2.57;;
23302;SDS011;11820;48.738;9.092;2023-04-15T09:18:40;6.00;;;2.07;;
23302;SDS011;11820;48.738;9.092;2023-04-15T09:21:09;6.10;;;2.03;;
23302;SDS011;11820;48.738;9.092;2023-04-15T09:23:37;4.67;;;2.53;;
23302;SDS011;11820;48.738;9.092;2023-04-15T09:26:04;5.40;;;1.97;;
23302;SDS011;11820;48.738;9.092;2023-04-15T09:28:30;7.40;;;1.90;;
23302;SDS011;11820;48.738;9.092;2023-04-15T09:30:59;6.20;;;2.10;;
23302;SDS011;11820;48.738;9.092;2023-04-15T09:33:26;3.20;;;1.93;;
23302;SDS011;11820;48.738;9.092;2023-04-15T09:36:03;5.60;;;2.03;;
23302;SDS011;11820;48.738;9.092;2023-04-15T09:38:30;5.23;;;1.63;;
23302;SDS011;11820;48.738;9.092;2023-04-15T09:40:56;9.77;;;2.50;;
23302;SDS011;11820;48.738;9.092;2023-04-15T09:43:25;3.83;;;2.33;;
23302;SDS011;11820;48.738;9.092;2023-04-15T09:46:01;3.43;;;2.37;;
23302;SDS011;11820;48.738;9.092;2023-04-15T09:48:27;5.43;;;2.17;;
23302;SDS011;11820;48.738;9.092;2023-04-15T09:50:53;3.47;;;2.17;;
23302;SDS011;11820;48.738;9.092;2023-04-15T09:53:22;3.70;;;2.40;;
23302;SDS011;11820;48.738;9.092;2023-04-15T09:55:49;3.83;;;2.27;;
23302;SDS011;11820;48.738;9.092;2023-04-15T09:58:19;8.10;;;2.33;;
23302;SDS011;11820;48.738;9.092;2023-04-15T10:00:50;7.77;;;2.63;;
23302;SDS011;11820;48.738;9.092;2023-04-15T10:03:21;5.57;;;2.23;;
23302;SDS011;11820;48.738;9.092;2023-04-15T10:05:49;6.93;;;3.80;;
23302;SDS011;11820;48.738;9.092;2023-04-15T10:08:17;5.33;;;2.67;;
23302;SDS011;11820;48.738;9.092;2023-04-15T10:10:44;4.63;;;2.60;;
23302;SDS011;11820;48.738;9.092;2023-04-15T10:13:12;7.47;;;2.40;;
23302;SDS011;11820;48.738;9.092;2023-04-15T10:15:39;3.83;;;2.30;;
23302;SDS011;11820;48.738;9.092;2023-04-15T10:18:16;3.10;;;1.80;;
23302;SDS011;11820;48.738;9.092;2023-04-15T10:20:44;4.27;;;2.10;;
23302;SDS011;11820;48.738;9.092;2023-04-15T10:23:10;5.03;;;2.40;;
23302;SDS011;11820;48.738;9.092;2023-04-15T10:25:36;4.77;;;2.20;;
23302;SDS011;11820;48.738;9.092;2023-04-15T10:28:03;9.30;;;2.77;;
23302;SDS011;11820;48.738;9.092;2023-04-15T10:30:30;5.80;;;2.53;;
23302;SDS011;11820;48.738;9.092;2023-04-15T10:32:57;5.57;;;2.80;;
23302;SDS011;11820;48.738;9.092;2023-04-15T10:35:22;5.93;;;2.30;;
23302;SDS011;11820;48.738;9.092;2023-04-15T10:37:48;3.37;;;2.30;;
23302;SDS011;11820;48.738;9.092;2023-04-15T10:40:29;5.63;;;2.70;;
23302;SDS011;11820;48.738;9.092;2023-04-15T10:42:59;5.47;;;2.57;;
23302;SDS011;11820;48.738;9.092;2023-04-15T10:45:26;6.00;;;2.73;;
23302;SDS011;11820;48.738;9.092;2023-04-15T10:48:00;3.63;;;2.67;;
23302;SDS011;11820;48.738;9.092;2023-04-15T10:50:27;3.97;;;2.80;;
23302;SDS011;11820;48.738;9.092;2023-04-15T10:52:55;5.60;;;2.83;;
23302;SDS011;11820;48.738;9.092;2023-04-15T10:55:24;5.83;;;2.80;;
23302;SDS011;11820;48.738;9.092;2023-04-15T10:57:57;4.67;;;2.90;;
23302;SDS011;11820;48.738;9.092;2023-04-15T11:00:25;4.40;;;3.20;;
23302;SDS011;11820;48.738;9.092;2023-04-15T11:03:06;3.97;;;2.77;;
23302;SDS011;11820;48.738;9.092;2023-04-15T11:08:10;5.70;;;2.80;;
23302;SDS011;11820;48.738;9.092;2023-04-15T11:13:02;5.90;;;2.60;;
23302;SDS011;11820;48.738;9.092;2023-04-15T11:15:29;7.03;;;3.47;;
23302;SDS011;11820;48.738;9.092;2023-04-15T11:20:34;7.23;;;2.80;;
23302;SDS011;11820;48.738;9.092;2023-04-15T11:23:00;5.90;;;2.90;;
23302;SDS011;11820;48.738;9.092;2023-04-15T11:25:29;3.93;;;2.67;;
23302;SDS011;11820;48.738;9.092;2023-04-15T11:27:57;6.27;;;2.40;;
23302;SDS011;11820;48.738;9.092;2023-04-15T11:30:24;5.93;;;2.87;;
23302;SDS011;11820;48.738;9.092;2023-04-15T11:32:56;4.67;;;2.33;;
23302;SDS011;11820;48.738;9.092;2023-04-15T11:35:22;5.80;;;2.20;;
23302;SDS011;11820;48.738;9.092;2023-04-15T11:37:48;5.70;;;2.90;;
23302;SDS011;11820;48.738;9.092;2023-04-15T11:40:14;3.57;;;2.13;;
23302;SDS011;11820;48.738;9.092;2023-04-15T11:42:41;4.47;;;2.50;;
23302;SDS011;11820;48.738;9.092;2023-04-15T11:45:08;4.47;;;2.42;;
23302;SDS011;11820;48.738;9.092;2023-04-15T11:47:35;4.07;;;2.43;;
23302;SDS011;11820;48.738;9.092;2023-04-15T11:50:21;3.77;;;2.47;;
23302;SDS011;11820;48.738;9.092;2023-04-15T11:52:53;7.07;;;2.33;;
23302;SDS011;11820;48.738;9.092;2023-04-15T11:55:20;5.03;;;2.37;;
23302;SDS011;11820;48.738;9.092;2023-04-15T11:57:47;6.00;;;2.47;;
23302;SDS011;11820;48.738;9.092;2023-04-15T12:00:14;3.23;;;2.13;;
23302;SDS011;11820;48.738;9.092;2023-04-15T12:02:41;3.23;;;2.10;;
23302;SDS011;11820;48.738;9.092;2023-04-15T12:05:07;4.97;;;2.90;;
23302;SDS011;11820;48.738;9.092;2023-04-15T12:07:56;4.10;;;2.17;;
23302;SDS011;11820;48.738;9.092;2023-04-15T12:10:25;5.00;;;2.10;;
23302;SDS011;11820;48.738;9.092;2023-04-15T12:12:51;3.57;;;1.93;;
23302;SDS011;11820;48.738;9.092;2023-04-15T12:15:17;3.57;;;2.77;;
23302;SDS011;11820;48.738;9.092;2023-04-15T12:17:46;4.23;;;2.13;;
23302;SDS011;11820;48.738;9.092;2023-04-15T12:20:11;4.13;;;2.10;;
23302;SDS011;11820;48.738;9.092;2023-04-15T12:22:36;3.67;;;2.10;;
23302;SDS011;11820;48.738;9.092;2023-04-15T12:25:02;4.10;;;2.37;;
23302;SDS011;11820;48.738;9.092;2023-04-15T12:27:28;4.33;;;2.67;;
23302;SDS011;11820;48.738;9.092;2023-04-15T12:30:02;6.03;;;3.33;;
23302;SDS011;11820;48.738;9.092;2023-04-15T12:32:34;3.93;;;2.70;;
23302;SDS011;11820;48.738;9.092;2023-04-15T12:35:00;6.43;;;2.93;;
23302;SDS011;11820;48.738;9.092;2023-04-15T12:37:25;7.87;;;3.50;;
23302;SDS011;11820;48.738;9.092;2023-04-15T12:39:51;4.80;;;2.80;;
23302;SDS011;11820;48.738;9.092;2023-04-15T12:42:18;4.03;;;2.50;;
23302;SDS011;11820;48.738;9.092;2023-04-15T12:44:43;4.43;;;3.03;;
23302;SDS011;11820;48.738;9.092;2023-04-15T12:47:09;4.50;;;2.80;;
23302;SDS011;11820;48.738;9.092;2023-04-15T12:49:35;4.87;;;2.70;;
23302;SDS011;11820;48.738;9.092;2023-04-15T12:52:01;6.40;;;2.30;;
23302;SDS011;11820;48.738;9.092;2023-04-15T12:54:28;7.17;;;2.33;;
23302;SDS011;11820;48.738;9.092;2023-04-15T12:56:54;5.90;;;3.03;;
23302;SDS011;11820;48.738;9.092;2023-04-15T12:59:20;4.60;;;2.87;;
23302;SDS011;11820;48.738;9.092;2023-04-15T13:01:46;3.13;;;2.20;;
23302;SDS011;11820;48.738;9.092;2023-04-15T13:04:12;5.17;;;2.70;;
23302;SDS011;11820;48.738;9.092;2023-04-15T13:06:37;4.13;;;2.10;;
23302;SDS011;11820;48.738;9.092;2023-04-15T13:09:03;3.53;;;2.00;;
23302;SDS011;11820;48.738;9.092;2023-04-15T13:11:29;4.40;;;2.10;;
23302;SDS011;11820;48.738;9.092;2023-04-15T13:13:57;4.87;;;2.47;;
23302;SDS011;11820;48.738;9.092;2023-04-15T13:16:23;2.63;;;2.00;;
23302;SDS011;11820;48.738;9.092;2023-04-15T13:18:49;3.33;;;2.00;;
23302;SDS011;11820;48.738;9.092;2023-04-15T13:21:14;4.43;;;2.30;;
23302;SDS011;11820;48.738;9.092;2023-04-15T13:23:40;3.50;;;2.23;;
23302;SDS011;11820;48.738;9.092;2023-04-15T13:26:06;4.57;;;2.30;;
23302;SDS011;11820;48.738;9.092;2023-04-15T13:28:32;4.40;;;2.33;;
23302;SDS011;11820;48.738;9.092;2023-04-15T13:30:57;3.00;;;2.50;;
23302;SDS011;11820;48.738;9.092;2023-04-15T13:33:24;4.17;;;2.57;;
23302;SDS011;11820;48.738;9.092;2023-04-15T13:35:49;4.43;;;2.47;;
23302;SDS011;11820;48.738;9.092;2023-04-15T13:38:15;5.40;;;2.53;;
23302;SDS011;11820;48.738;9.092;2023-04-15T13:40:40;3.00;;;1.90;;
23302;SDS011;11820;48.738;9.092;2023-04-15T13:43:05;3.43;;;2.07;;
23302;SDS011;11820;48.738;9.092;2023-04-15T13:45:31;3.83;;;2.40;;
23302;SDS011;11820;48.738;9.092;2023-04-15T13:47:57;3.40;;;1.87;;
23302;SDS011;11820;48.738;9.092;2023-04-15T13:50:22;1.90;;;1.77;;
23302;SDS011;11820;48.738;9.092;2023-04-15T13:52:48;3.23;;;2.03;;
23302;SDS011;11820;48.738;9.092;2023-04-15T13:55:13;3.33;;;1.50;;
23302;SDS011;11820;48.738;9.092;2023-04-15T13:57:38;6.23;;;1.97;;
23302;SDS011;11820;48.738;9.092;2023-04-15T14:00:05;3.80;;;2.10;;
23302;SDS011;11820;48.738;9.092;2023-04-15T14:02:31;2.37;;;1.20;;
23302;SDS011;11820;48.738;9.092;2023-04-15T14:04:57;2.10;;;1.10;;
23302;SDS011;11820;48.738;9.092;2023-04-15T14:07:22;4.97;;;1.70;;
23302;SDS011;11820;48.738;9.092;2023-04-15T14:09:47;4.53;;;1.73;;
23302;SDS011;11820;48.738;9.092;2023-04-15T14:12:13;5.43;;;1.60;;
23302;SDS011;11820;48.738;9.092;2023-04-15T14:14:38;1.53;;;1.20;;
23302;SDS011;11820;48.738;9.092;2023-04-15T14:17:04;1.20;;;0.87;;
23302;SDS011;11820;48.738;9.092;2023-04-15T14:19:30;3.43;;;0.97;;
23302;SDS011;11820;48.738;9.092;2023-04-15T14:21:55;3.43;;;1.07;;
23302;SDS011;11820;48.738;9.092;2023-04-15T14:24:21;1.00;;;0.70;;
23302;SDS011;11820;48.738;9.092;2023-04-15T14:26:46;2.53;;;0.93;;
23302;SDS011;11820;48.738;9.092;2023-04-15T14:29:12;1.67;;;0.87;;
23302;SDS011;11820;48.738;9.092;2023-04-15T14:31:37;1.37;;;1.00;;
23302;SDS011;11820;48.738;9.092;2023-04-15T14:34:03;2.77;;;1.30;;
23302;SDS011;11820;48.738;9.092;2023-04-15T14:36:28;3.20;;;1.87;;
23302;SDS011;11820;48.738;9.092;2023-04-15T14:38:53;2.07;;;1.23;;
23302;SDS011;11820;48.738;9.092;2023-04-15T14:41:19;2.50;;;1.47;;
23302;SDS011;11820;48.738;9.092;2023-04-15T14:43:44;3.10;;;1.63;;
23302;SDS011;11820;48.738;9.092;2023-04-15T14:46:10;2.10;;;1.60;;
23302;SDS011;11820;48.738;9.092;2023-04-15T14:48:35;3.37;;;1.90;;
23302;SDS011;11820;48.738;9.092;2023-04-15T14:51:00;2.63;;;1.77;;